MEX weather

Licenciado Benito Juarez International Airport
Mexico City, Distrito Federal, Mexico

Public forecast

Using degrees Celsius for public forecast. Weather courtesy of forecast.io.

METAR (pilot weather report)

Retrieved 2019/04/20 23:45 UTC (56 minutes ago):

MMMX 202345Z 04010KT 8SM FEW020 SCT080 26/M05 A3025 NOSIG RMK SLP085 57006 904 8/130 HZY

TAF (pilot weather forecast)

Forecast is more than 12 hours old.

Retrieved 2019/04/20 00:00 UTC (1 day ago):

TAF MMMX 202255Z 2100/2206 20010KT P6SM SCT020 TX28/2121Z TN10/2112Z FM210400 14006KT P6SM SKC BECMG 2110/2111 07005KT FM211700 35008KT P6SM SCT200 BECMG 2121/2122 24006G16KT SCT020 SCT080 SCT200 FM220300 14006KT P6SM SKC